createdAt,value
2018-12-05T00:00:00.556Z,1019.97
2018-12-05T00:00:41.116Z,1020
2018-12-05T00:01:21.678Z,1020
2018-12-05T00:02:02.237Z,1019.98
2018-12-05T00:02:42.801Z,1020.02
2018-12-05T00:03:23.413Z,1020
2018-12-05T00:04:03.979Z,1019.99
2018-12-05T00:04:44.545Z,1019.98
2018-12-05T00:05:25.108Z,1020.08
2018-12-05T00:06:05.665Z,1020.06
2018-12-05T00:06:46.210Z,1020.04
2018-12-05T00:07:26.779Z,1020.05
2018-12-05T00:08:07.338Z,1020.1
2018-12-05T00:08:47.899Z,1020.08
2018-12-05T00:09:28.483Z,1020.11
2018-12-05T00:10:09.053Z,1020.08
2018-12-05T00:10:49.638Z,1020.08
2018-12-05T00:11:30.184Z,1020.17
2018-12-05T00:12:10.760Z,1020.15
2018-12-05T00:12:51.329Z,1020.19
2018-12-05T00:13:31.879Z,1020.14
2018-12-05T00:14:12.443Z,1020.15
2018-12-05T00:14:53.022Z,1020.12
2018-12-05T00:15:33.570Z,1020.16
2018-12-05T00:16:14.124Z,1020.16
2018-12-05T00:16:54.752Z,1020.15
2018-12-05T00:17:35.290Z,1020.16
2018-12-05T00:18:15.855Z,1020.15
2018-12-05T00:18:56.427Z,1020.18
2018-12-05T00:19:36.979Z,1020.2
2018-12-05T00:20:17.544Z,1020.17
2018-12-05T00:23:31.402Z,1020.2
2018-12-05T00:24:11.966Z,1020.21
2018-12-05T00:24:52.532Z,1020.23
2018-12-05T00:25:33.095Z,1020.18
2018-12-05T00:26:13.661Z,1020.23
2018-12-05T00:26:54.253Z,1020.19
2018-12-05T00:27:35.838Z,1020.22
2018-12-05T00:28:16.483Z,1020.21
2018-12-05T00:28:57.040Z,1020.19
2018-12-05T00:29:37.608Z,1020.23
2018-12-05T00:30:18.175Z,1020.25
2018-12-05T00:30:58.745Z,1020.25
2018-12-05T00:31:39.303Z,1020.21
2018-12-05T00:32:19.906Z,1020.23
2018-12-05T00:33:00.461Z,1020.24
2018-12-05T00:33:41.022Z,1020.22
2018-12-05T00:34:21.580Z,1020.23
2018-12-05T00:35:02.140Z,1020.24
2018-12-05T00:35:42.712Z,1020.25
2018-12-05T00:36:23.266Z,1020.26
2018-12-05T00:37:03.829Z,1020.25
2018-12-05T00:37:44.492Z,1020.29
2018-12-05T00:38:24.988Z,1020.31
2018-12-05T00:39:05.549Z,1020.29
2018-12-05T00:39:46.108Z,1020.31
2018-12-05T00:40:26.645Z,1020.28
2018-12-05T00:41:07.216Z,1020.3
2018-12-05T00:41:47.773Z,1020.28
2018-12-05T00:42:28.321Z,1020.28
2018-12-05T00:43:08.877Z,1020.3
2018-12-05T00:43:49.549Z,1020.29
2018-12-05T00:44:30.107Z,1020.28
2018-12-05T00:45:10.666Z,1020.27
2018-12-05T00:45:51.233Z,1020.29
2018-12-05T00:46:31.773Z,1020.29
2018-12-05T00:47:12.390Z,1020.29
2018-12-05T00:47:52.946Z,1020.25
2018-12-05T00:48:33.516Z,1020.29
2018-12-05T00:49:14.069Z,1020.29
2018-12-05T00:49:54.626Z,1020.27
2018-12-05T00:50:35.182Z,1020.23
2018-12-05T00:51:15.728Z,1020.26
2018-12-05T00:51:56.280Z,1020.31
2018-12-05T00:52:36.846Z,1020.29
2018-12-05T00:53:17.386Z,1020.32
2018-12-05T00:53:57.953Z,1020.33
2018-12-05T00:54:38.503Z,1020.36
2018-12-05T00:55:19.063Z,1020.34
2018-12-05T00:55:59.619Z,1020.34
2018-12-05T00:56:40.203Z,1020.33
2018-12-05T00:57:20.750Z,1020.34
2018-12-05T00:58:01.363Z,1020.31
2018-12-05T00:58:41.881Z,1020.35
2018-12-05T00:59:22.469Z,1020.36
2018-12-05T01:00:03.265Z,1020.33
2018-12-05T01:00:43.811Z,1020.35
2018-12-05T01:01:24.381Z,1020.4
2018-12-05T01:02:04.936Z,1020.33
2018-12-05T01:02:45.494Z,1020.42
2018-12-05T01:03:26.057Z,1020.35
2018-12-05T01:04:06.609Z,1020.36
2018-12-05T01:04:47.154Z,1020.42
2018-12-05T01:05:27.713Z,1020.39
2018-12-05T01:06:08.256Z,1020.39
2018-12-05T01:06:48.821Z,1020.4
2018-12-05T01:07:29.368Z,1020.4
2018-12-05T01:08:09.980Z,1020.39
2018-12-05T01:08:50.586Z,1020.43
2018-12-05T01:09:31.137Z,1020.43
2018-12-05T01:10:11.688Z,1020.45
2018-12-05T01:10:52.239Z,1020.46
2018-12-05T01:11:32.821Z,1020.44
2018-12-05T01:12:13.371Z,1020.47
2018-12-05T01:12:53.926Z,1020.48
2018-12-05T01:13:34.499Z,1020.48
2018-12-05T01:14:15.097Z,1020.52
2018-12-05T01:14:55.658Z,1020.49
2018-12-05T01:15:36.216Z,1020.49
2018-12-05T01:16:16.775Z,1020.49
2018-12-05T01:16:57.331Z,1020.47
2018-12-05T01:17:37.892Z,1020.51
2018-12-05T01:18:18.460Z,1020.52
2018-12-05T01:18:59.032Z,1020.52
2018-12-05T01:19:39.594Z,1020.52
2018-12-05T01:20:20.150Z,1020.57
2018-12-05T01:21:00.697Z,1020.57
2018-12-05T01:21:41.251Z,1020.61
2018-12-05T01:22:21.802Z,1020.52
2018-12-05T01:23:02.384Z,1020.57
2018-12-05T01:23:42.944Z,1020.61
2018-12-05T01:24:23.509Z,1020.6
2018-12-05T01:25:04.083Z,1020.6
2018-12-05T01:25:44.635Z,1020.6
2018-12-05T01:26:25.208Z,1020.65
2018-12-05T01:27:05.755Z,1020.61
2018-12-05T01:27:46.367Z,1020.62
2018-12-05T01:28:26.854Z,1020.64
2018-12-05T01:29:07.411Z,1020.61
2018-12-05T01:29:47.957Z,1020.62
2018-12-05T01:30:28.527Z,1020.6
2018-12-05T01:31:09.095Z,1020.59
2018-12-05T01:31:49.700Z,1020.57
2018-12-05T01:32:30.249Z,1020.56
2018-12-05T01:33:10.816Z,1020.62
2018-12-05T01:33:51.374Z,1020.57
2018-12-05T01:34:31.946Z,1020.56
2018-12-05T01:35:12.516Z,1020.58
2018-12-05T01:35:53.116Z,1020.54
2018-12-05T01:36:33.666Z,1020.58
2018-12-05T01:37:14.220Z,1020.56
2018-12-05T01:37:54.776Z,1020.56
2018-12-05T01:38:35.317Z,1020.52
2018-12-05T01:39:15.866Z,1020.58
2018-12-05T01:39:56.421Z,1020.56
2018-12-05T01:40:36.970Z,1020.56
2018-12-05T01:41:17.528Z,1020.55
2018-12-05T01:41:58.077Z,1020.6
2018-12-05T01:42:38.631Z,1020.61
2018-12-05T01:43:19.182Z,1020.63
2018-12-05T01:43:59.728Z,1020.62
2018-12-05T01:44:40.376Z,1020.65
2018-12-05T01:45:20.930Z,1020.62
2018-12-05T01:46:01.482Z,1020.6
2018-12-05T01:46:42.057Z,1020.61
2018-12-05T01:47:22.605Z,1020.58
2018-12-05T01:48:03.154Z,1020.56
2018-12-05T01:48:43.704Z,1020.58
2018-12-05T01:49:24.266Z,1020.56
2018-12-05T01:50:04.842Z,1020.64
2018-12-05T01:50:45.390Z,1020.62
2018-12-05T01:51:25.956Z,1020.65
2018-12-05T01:52:06.515Z,1020.6
2018-12-05T01:52:47.066Z,1020.62
2018-12-05T01:53:27.700Z,1020.6
2018-12-05T01:54:08.269Z,1020.6
2018-12-05T01:54:48.833Z,1020.6
2018-12-05T01:55:29.387Z,1020.62
2018-12-05T01:56:09.942Z,1020.61
2018-12-05T01:56:50.506Z,1020.65
2018-12-05T01:57:31.072Z,1020.61
2018-12-05T01:58:11.637Z,1020.6
2018-12-05T01:58:52.247Z,1020.63
2018-12-05T01:59:32.828Z,1020.58
2018-12-05T02:00:13.371Z,1020.61
2018-12-05T02:00:53.971Z,1020.57
2018-12-05T02:01:34.586Z,1020.6
2018-12-05T02:02:15.178Z,1020.58
2018-12-05T02:02:55.761Z,1020.6
2018-12-05T02:03:36.419Z,1020.58
2018-12-05T02:04:16.888Z,1020.57
2018-12-05T02:04:57.483Z,1020.61
2018-12-05T02:05:38.027Z,1020.61
2018-12-05T02:06:18.670Z,1020.58
2018-12-05T02:06:59.230Z,1020.57
2018-12-05T02:07:39.795Z,1020.61
2018-12-05T02:08:20.347Z,1020.65
2018-12-05T02:09:00.915Z,1020.62
2018-12-05T02:09:41.492Z,1020.66
2018-12-05T02:10:22.043Z,1020.67
2018-12-05T02:11:02.600Z,1020.63
2018-12-05T02:11:43.164Z,1020.62
2018-12-05T02:12:23.731Z,1020.7
2018-12-05T02:13:04.283Z,1020.72
2018-12-05T02:13:44.847Z,1020.67
2018-12-05T02:14:25.425Z,1020.67
2018-12-05T02:15:05.991Z,1020.69
2018-12-05T02:15:46.586Z,1020.68
2018-12-05T02:16:27.201Z,1020.7
2018-12-05T02:17:07.754Z,1020.66
2018-12-05T02:17:48.306Z,1020.61
2018-12-05T02:18:28.858Z,1020.62
2018-12-05T02:19:09.410Z,1020.65
2018-12-05T02:19:49.958Z,1020.64
2018-12-05T02:20:30.511Z,1020.64
2018-12-05T02:21:11.145Z,1020.58
2018-12-05T02:21:51.698Z,1020.61
2018-12-05T02:22:32.190Z,1020.59
2018-12-05T02:23:12.751Z,1020.6
2018-12-05T02:23:53.305Z,1020.62
2018-12-05T02:24:33.862Z,1020.61
2018-12-05T02:25:14.425Z,1020.62
2018-12-05T02:25:54.996Z,1020.65
2018-12-05T02:26:35.548Z,1020.63
2018-12-05T02:27:16.100Z,1020.62
2018-12-05T02:27:56.699Z,1020.62
2018-12-05T02:28:37.254Z,1020.63
2018-12-05T02:29:17.852Z,1020.63
2018-12-05T02:29:58.401Z,1020.65
2018-12-05T02:30:38.981Z,1020.59
2018-12-05T02:31:19.756Z,1020.63
2018-12-05T02:32:00.380Z,1020.61
2018-12-05T02:32:40.944Z,1020.63
2018-12-05T02:33:21.553Z,1020.66
2018-12-05T02:34:02.113Z,1020.7
2018-12-05T02:34:42.696Z,1020.71
2018-12-05T02:35:23.269Z,1020.72
2018-12-05T02:36:03.870Z,1020.68
2018-12-05T02:36:44.446Z,1020.7
2018-12-05T02:37:24.990Z,1020.73
2018-12-05T02:38:05.728Z,1020.73
2018-12-05T02:38:46.293Z,1020.76
2018-12-05T02:39:26.848Z,1020.79
2018-12-05T02:40:07.399Z,1020.78
2018-12-05T02:40:47.951Z,1020.78
2018-12-05T02:41:28.555Z,1020.77
2018-12-05T02:42:09.158Z,1020.78
2018-12-05T02:42:49.717Z,1020.81
2018-12-05T02:43:30.267Z,1020.84
2018-12-05T02:44:10.833Z,1020.79
2018-12-05T02:44:51.418Z,1020.83
2018-12-05T02:45:31.979Z,1020.78
2018-12-05T02:46:12.530Z,1020.85
2018-12-05T02:46:53.097Z,1020.83
2018-12-05T02:47:33.669Z,1020.84
2018-12-05T02:48:14.232Z,1020.84
2018-12-05T02:48:54.817Z,1020.8
2018-12-05T02:49:35.377Z,1020.84
2018-12-05T02:50:15.929Z,1020.85
2018-12-05T02:50:56.503Z,1020.85
2018-12-05T02:51:37.055Z,1020.87
2018-12-05T02:52:17.616Z,1020.87
2018-12-05T02:52:58.196Z,1020.87
2018-12-05T02:53:38.762Z,1020.88
2018-12-05T02:54:19.341Z,1020.87
2018-12-05T02:54:59.937Z,1020.87
2018-12-05T02:55:40.499Z,1020.89
2018-12-05T02:56:21.060Z,1020.88
2018-12-05T02:57:01.624Z,1020.89
2018-12-05T02:57:42.211Z,1020.92
2018-12-05T02:58:22.750Z,1020.91
2018-12-05T02:59:03.298Z,1020.96
2018-12-05T02:59:43.879Z,1020.96
2018-12-05T03:00:24.860Z,1020.97
2018-12-05T03:01:05.417Z,1020.98
2018-12-05T03:01:46.078Z,1020.94
2018-12-05T03:02:26.644Z,1020.95
2018-12-05T03:03:07.218Z,1020.94
2018-12-05T03:03:47.809Z,1020.96
2018-12-05T03:04:28.371Z,1020.93
2018-12-05T03:05:08.931Z,1020.95
2018-12-05T03:05:49.511Z,1020.95
2018-12-05T03:06:30.067Z,1021
2018-12-05T03:07:10.637Z,1021.02
2018-12-05T03:07:51.198Z,1020.99
2018-12-05T03:08:31.748Z,1020.98
2018-12-05T03:09:12.303Z,1020.95
2018-12-05T03:09:52.865Z,1020.99
2018-12-05T03:10:33.419Z,1021.02
2018-12-05T03:11:13.979Z,1021.04
2018-12-05T03:11:54.566Z,1021
2018-12-05T03:12:35.121Z,1021.06
2018-12-05T03:13:15.676Z,1021.02
2018-12-05T03:13:56.243Z,1021.02
2018-12-05T03:14:36.845Z,1021.04
2018-12-05T03:15:17.400Z,1021.07
2018-12-05T03:15:57.953Z,1021.07
2018-12-05T03:16:38.545Z,1021.1
2018-12-05T03:17:19.116Z,1021.05
2018-12-05T03:17:59.677Z,1021.09
2018-12-05T03:18:40.230Z,1021.04
2018-12-05T03:19:20.794Z,1021.02
2018-12-05T03:20:01.354Z,1021.02
2018-12-05T03:20:41.916Z,1021.05
2018-12-05T03:21:22.468Z,1021.03
2018-12-05T03:22:03.070Z,1021.05
2018-12-05T03:22:43.618Z,1021.04
2018-12-05T03:23:24.179Z,1021.08
2018-12-05T03:24:04.747Z,1021.06
2018-12-05T03:24:45.301Z,1021.04
2018-12-05T03:25:25.871Z,1021.05
2018-12-05T03:26:06.423Z,1021.01
2018-12-05T03:26:46.986Z,1021.04
2018-12-05T03:27:27.544Z,1021.04
2018-12-05T03:28:08.091Z,1021.04
2018-12-05T03:28:48.660Z,1021.07
2018-12-05T03:29:29.223Z,1021.09
2018-12-05T03:30:09.808Z,1021.09
2018-12-05T03:30:50.374Z,1021.1
2018-12-05T03:31:30.914Z,1021.1
2018-12-05T03:32:11.476Z,1021.11
2018-12-05T03:32:52.068Z,1021.15
2018-12-05T03:33:32.613Z,1021.18
2018-12-05T03:34:13.161Z,1021.16
2018-12-05T03:34:53.710Z,1021.16
2018-12-05T03:35:34.276Z,1021.17
2018-12-05T03:36:14.873Z,1021.19
2018-12-05T03:36:55.435Z,1021.12
2018-12-05T03:37:35.991Z,1021.16
2018-12-05T03:38:16.551Z,1021.18
2018-12-05T03:38:57.108Z,1021.2
2018-12-05T03:39:37.677Z,1021.19
2018-12-05T03:40:18.246Z,1021.2
2018-12-05T03:40:58.802Z,1021.2
2018-12-05T03:41:39.392Z,1021.19
2018-12-05T03:42:19.948Z,1021.2
2018-12-05T03:43:00.497Z,1021.17
2018-12-05T03:43:41.056Z,1021.23
2018-12-05T03:44:21.601Z,1021.22
2018-12-05T03:45:02.146Z,1021.23
2018-12-05T03:45:42.722Z,1021.21
2018-12-05T03:46:23.269Z,1021.23
2018-12-05T03:47:03.835Z,1021.23
2018-12-05T03:47:44.401Z,1021.24
2018-12-05T03:48:24.957Z,1021.2
2018-12-05T03:49:05.513Z,1021.22
2018-12-05T03:49:46.068Z,1021.22
2018-12-05T03:50:26.616Z,1021.25
2018-12-05T03:51:07.195Z,1021.27
2018-12-05T03:51:47.836Z,1021.25
2018-12-05T03:52:28.398Z,1021.29
2018-12-05T03:53:08.952Z,1021.25
2018-12-05T03:53:49.539Z,1021.25
2018-12-05T03:57:08.499Z,1021.24
2018-12-05T03:57:49.043Z,1021.19
2018-12-05T03:58:29.599Z,1021.2
2018-12-05T03:59:10.149Z,1021.2
2018-12-05T03:59:50.700Z,1021.22
2018-12-05T04:00:31.251Z,1021.17
2018-12-05T04:01:11.803Z,1021.16
2018-12-05T04:01:52.363Z,1021.2
2018-12-05T04:02:32.933Z,1021.14
2018-12-05T04:03:13.482Z,1021.23
2018-12-05T04:03:54.040Z,1021.17
2018-12-05T04:04:34.611Z,1021.21
2018-12-05T04:05:15.174Z,1021.16
2018-12-05T04:05:55.727Z,1021.18
2018-12-05T04:06:36.300Z,1021.19
2018-12-05T04:07:16.862Z,1021.18
2018-12-05T04:07:57.402Z,1021.19
2018-12-05T04:08:37.958Z,1021.21
2018-12-05T04:09:18.512Z,1021.22
2018-12-05T04:09:59.080Z,1021.24
2018-12-05T04:10:39.651Z,1021.27
2018-12-05T04:11:20.210Z,1021.24
2018-12-05T04:12:00.779Z,1021.26
2018-12-05T04:12:41.356Z,1021.25
2018-12-05T04:13:21.908Z,1021.27
2018-12-05T04:14:02.463Z,1021.31
2018-12-05T04:14:43.039Z,1021.3
2018-12-05T04:15:23.611Z,1021.32
2018-12-05T04:16:04.162Z,1021.34
2018-12-05T04:16:44.734Z,1021.35
2018-12-05T04:17:25.288Z,1021.34
2018-12-05T04:18:05.852Z,1021.35
2018-12-05T04:18:46.415Z,1021.38
2018-12-05T04:19:26.972Z,1021.39
2018-12-05T04:20:07.513Z,1021.39
2018-12-05T04:20:48.076Z,1021.42
2018-12-05T04:21:28.637Z,1021.36
2018-12-05T04:22:09.195Z,1021.33
2018-12-05T04:22:49.751Z,1021.39
2018-12-05T04:23:30.309Z,1021.35
2018-12-05T04:24:10.882Z,1021.36
2018-12-05T04:24:51.451Z,1021.35
2018-12-05T04:25:32.004Z,1021.36
2018-12-05T04:26:12.573Z,1021.37
2018-12-05T04:26:53.132Z,1021.36
2018-12-05T04:27:33.718Z,1021.35
2018-12-05T04:28:14.299Z,1021.39
2018-12-05T04:28:54.854Z,1021.37
2018-12-05T04:29:35.420Z,1021.42
2018-12-05T04:30:15.976Z,1021.39
2018-12-05T04:30:56.543Z,1021.39
2018-12-05T04:31:37.087Z,1021.39
2018-12-05T04:32:17.693Z,1021.36
2018-12-05T04:32:58.254Z,1021.41
2018-12-05T04:33:38.824Z,1021.38
2018-12-05T04:34:19.390Z,1021.41
2018-12-05T04:34:59.943Z,1021.43
2018-12-05T04:35:40.498Z,1021.4
2018-12-05T04:36:21.053Z,1021.43
2018-12-05T04:37:01.633Z,1021.44
2018-12-05T04:37:42.200Z,1021.41
2018-12-05T04:38:22.765Z,1021.47
2018-12-05T04:39:03.324Z,1021.45
2018-12-05T04:39:43.891Z,1021.44
2018-12-05T04:40:24.447Z,1021.43
2018-12-05T04:41:04.999Z,1021.44
2018-12-05T04:41:45.552Z,1021.45
2018-12-05T04:42:26.110Z,1021.47
2018-12-05T04:43:06.662Z,1021.45
2018-12-05T04:43:47.229Z,1021.46
2018-12-05T04:44:27.780Z,1021.5
2018-12-05T04:45:08.338Z,1021.44
2018-12-05T04:45:48.888Z,1021.42
2018-12-05T04:46:29.489Z,1021.42
2018-12-05T04:47:10.055Z,1021.43
2018-12-05T04:47:50.645Z,1021.44
2018-12-05T04:48:31.163Z,1021.43
2018-12-05T04:49:11.711Z,1021.42
2018-12-05T04:49:52.292Z,1021.46
2018-12-05T04:50:34.439Z,1021.45
2018-12-05T04:51:13.425Z,1021.44
2018-12-05T04:51:53.951Z,1021.44
2018-12-05T04:52:34.550Z,1021.48
2018-12-05T04:53:15.112Z,1021.48
2018-12-05T04:53:55.686Z,1021.51
2018-12-05T04:54:36.263Z,1021.51
2018-12-05T04:55:16.801Z,1021.5
2018-12-05T04:55:57.351Z,1021.53
2018-12-05T04:56:37.950Z,1021.59
2018-12-05T04:57:18.500Z,1021.56
2018-12-05T04:57:59.075Z,1021.52
2018-12-05T04:58:39.623Z,1021.55
2018-12-05T04:59:20.175Z,1021.6
2018-12-05T05:00:00.741Z,1021.6
2018-12-05T05:00:41.461Z,1021.59
2018-12-05T05:01:22.020Z,1021.61
2018-12-05T05:02:02.590Z,1021.61
2018-12-05T05:02:43.177Z,1021.65
2018-12-05T05:03:23.714Z,1021.61
2018-12-05T05:04:04.262Z,1021.66
2018-12-05T05:04:44.814Z,1021.67
2018-12-05T05:05:25.368Z,1021.64
2018-12-05T05:06:05.916Z,1021.64
2018-12-05T05:06:46.484Z,1021.67
2018-12-05T05:07:27.037Z,1021.64
2018-12-05T05:08:07.599Z,1021.63
2018-12-05T05:08:48.168Z,1021.64
2018-12-05T05:09:28.767Z,1021.66
2018-12-05T05:10:09.322Z,1021.73
2018-12-05T05:10:49.891Z,1021.68
2018-12-05T05:11:30.444Z,1021.7
2018-12-05T05:12:10.993Z,1021.72
2018-12-05T05:12:51.551Z,1021.72
2018-12-05T05:13:32.104Z,1021.73
2018-12-05T05:14:12.651Z,1021.75
2018-12-05T05:14:53.203Z,1021.74
2018-12-05T05:15:33.757Z,1021.72
2018-12-05T05:16:14.314Z,1021.75
2018-12-05T05:16:54.872Z,1021.8
2018-12-05T05:17:35.425Z,1021.74
2018-12-05T05:18:15.979Z,1021.74
2018-12-05T05:18:56.550Z,1021.78
2018-12-05T05:19:37.101Z,1021.79
2018-12-05T05:20:17.658Z,1021.85
2018-12-05T05:20:58.232Z,1021.84
2018-12-05T05:21:38.786Z,1021.82
2018-12-05T05:22:19.343Z,1021.83
2018-12-05T05:22:59.901Z,1021.87
2018-12-05T05:23:40.450Z,1021.85
2018-12-05T05:24:21.019Z,1021.88
2018-12-05T05:25:01.600Z,1021.87
2018-12-05T05:25:42.190Z,1021.85
2018-12-05T05:26:22.733Z,1021.89
2018-12-05T05:27:03.296Z,1021.91
2018-12-05T05:27:45.954Z,1021.87
2018-12-05T05:28:24.471Z,1021.89
2018-12-05T05:29:05.020Z,1021.86
2018-12-05T05:29:45.585Z,1021.83
2018-12-05T05:30:26.204Z,1021.89
2018-12-05T05:31:06.846Z,1021.88
2018-12-05T05:31:47.407Z,1021.89
2018-12-05T05:32:27.934Z,1021.89
2018-12-05T05:33:08.485Z,1021.92
2018-12-05T05:33:49.057Z,1021.92
2018-12-05T05:34:29.600Z,1021.9
2018-12-05T05:35:10.178Z,1021.92
2018-12-05T05:35:50.748Z,1021.96
2018-12-05T05:36:31.311Z,1021.92
2018-12-05T05:37:11.884Z,1021.9
2018-12-05T05:37:52.441Z,1021.94
2018-12-05T05:38:33.004Z,1021.93
2018-12-05T05:39:13.575Z,1021.99
2018-12-05T05:39:54.125Z,1021.99
2018-12-05T05:40:34.677Z,1021.97
2018-12-05T05:41:15.236Z,1022
2018-12-05T05:41:55.817Z,1021.95
2018-12-05T05:42:36.379Z,1022
2018-12-05T05:43:16.946Z,1021.98
2018-12-05T05:43:57.600Z,1021.96
2018-12-05T05:44:38.181Z,1021.98
2018-12-05T05:45:18.748Z,1022.01
2018-12-05T05:45:59.340Z,1022.04
2018-12-05T05:46:39.905Z,1021.98
2018-12-05T05:47:20.464Z,1022.07
2018-12-05T05:48:01.022Z,1022.01
2018-12-05T05:48:41.654Z,1022.02
2018-12-05T05:49:22.133Z,1022.03
2018-12-05T05:50:02.696Z,1022.05
2018-12-05T05:50:43.240Z,1022.04
2018-12-05T05:51:23.798Z,1022.04
2018-12-05T05:52:04.383Z,1022.06
2018-12-05T05:52:44.939Z,1022.06
2018-12-05T05:53:25.471Z,1022.05
2018-12-05T05:54:06.028Z,1022.09
2018-12-05T05:54:46.587Z,1022.11
2018-12-05T05:55:27.151Z,1022.02
2018-12-05T05:56:07.707Z,1022.03
2018-12-05T05:56:48.260Z,1022.03
2018-12-05T05:57:28.866Z,1022.02
2018-12-05T05:58:09.368Z,1022.01
2018-12-05T05:58:49.927Z,1021.98
2018-12-05T05:59:30.482Z,1021.99
2018-12-05T06:00:11.056Z,1021.98
2018-12-05T06:00:51.691Z,1021.97
2018-12-05T06:01:32.213Z,1022.01
2018-12-05T06:02:12.776Z,1022.02
2018-12-05T06:02:53.312Z,1022.03
2018-12-05T06:03:33.866Z,1022
2018-12-05T06:04:14.440Z,1022.02
2018-12-05T06:04:54.988Z,1022.03
2018-12-05T06:05:35.542Z,1022
2018-12-05T06:06:16.091Z,1022.02
2018-12-05T06:06:56.661Z,1022
2018-12-05T06:07:37.241Z,1021.99
2018-12-05T06:08:17.794Z,1022
2018-12-05T06:08:58.356Z,1022.03
2018-12-05T06:09:38.951Z,1022.01
2018-12-05T06:10:19.523Z,1022.02
2018-12-05T06:11:00.070Z,1021.99
2018-12-05T06:11:40.624Z,1022.02
2018-12-05T06:12:21.174Z,1021.99
2018-12-05T06:13:01.791Z,1022.02
2018-12-05T06:13:42.342Z,1022
2018-12-05T06:14:22.953Z,1022.02
2018-12-05T06:15:03.524Z,1022.01
2018-12-05T06:15:44.114Z,1022.02
2018-12-05T06:16:24.673Z,1022.01
2018-12-05T06:17:05.231Z,1022.01
2018-12-05T06:17:45.779Z,1022.04
2018-12-05T06:18:26.345Z,1022
2018-12-05T06:19:06.914Z,1022.02
2018-12-05T06:19:47.465Z,1022.03
2018-12-05T06:20:28.035Z,1022.06
2018-12-05T06:21:08.591Z,1022.05
2018-12-05T06:21:49.254Z,1022.01
2018-12-05T06:22:29.830Z,1022.04
2018-12-05T06:23:10.416Z,1022.05
2018-12-05T06:23:50.977Z,1022.08
2018-12-05T06:24:31.536Z,1022.07
2018-12-05T06:25:12.113Z,1022.05
2018-12-05T06:25:52.638Z,1022.11
2018-12-05T06:26:33.209Z,1022.13
2018-12-05T06:27:13.785Z,1022.11
2018-12-05T06:27:54.350Z,1022.11
2018-12-05T06:28:34.903Z,1022.13
2018-12-05T06:29:15.528Z,1022.12
2018-12-05T06:29:56.110Z,1022.16
2018-12-05T06:30:36.659Z,1022.13
2018-12-05T06:31:17.208Z,1022.14
2018-12-05T06:31:57.757Z,1022.2
2018-12-05T06:32:38.322Z,1022.18
2018-12-05T06:33:18.951Z,1022.2
2018-12-05T06:33:59.501Z,1022.19
2018-12-05T06:34:40.053Z,1022.17
2018-12-05T06:35:20.612Z,1022.22
2018-12-05T06:36:01.211Z,1022.23
2018-12-05T06:36:41.786Z,1022.23
2018-12-05T06:37:22.344Z,1022.25
2018-12-05T06:38:02.903Z,1022.23
2018-12-05T06:38:43.461Z,1022.25
2018-12-05T06:39:24.021Z,1022.32
2018-12-05T06:40:04.592Z,1022.37
2018-12-05T06:40:45.163Z,1022.32
2018-12-05T06:41:25.731Z,1022.36
2018-12-05T06:42:06.291Z,1022.4
2018-12-05T06:42:46.912Z,1022.47
2018-12-05T06:43:27.448Z,1022.42
2018-12-05T06:44:08.004Z,1022.41
2018-12-05T06:44:48.659Z,1022.44
2018-12-05T06:45:29.330Z,1022.43
2018-12-05T06:46:09.896Z,1022.47
2018-12-05T06:46:50.448Z,1022.43
2018-12-05T06:47:31.074Z,1022.44
2018-12-05T06:48:11.623Z,1022.44
2018-12-05T06:48:52.185Z,1022.46
2018-12-05T06:49:32.751Z,1022.48
2018-12-05T06:50:13.310Z,1022.45
2018-12-05T06:50:53.953Z,1022.44
2018-12-05T06:51:34.509Z,1022.45
2018-12-05T06:52:15.059Z,1022.45
2018-12-05T06:52:55.610Z,1022.44
2018-12-05T06:53:36.186Z,1022.47
2018-12-05T06:54:16.740Z,1022.48
2018-12-05T06:54:57.322Z,1022.48
2018-12-05T06:55:39.170Z,1022.49
2018-12-05T06:56:18.425Z,1022.46
2018-12-05T06:56:58.989Z,1022.46
2018-12-05T06:57:39.540Z,1022.47
2018-12-05T06:58:20.089Z,1022.48
2018-12-05T06:59:00.651Z,1022.5
2018-12-05T06:59:41.209Z,1022.48
2018-12-05T07:00:21.768Z,1022.51
2018-12-05T07:01:02.332Z,1022.49
2018-12-05T07:01:42.884Z,1022.45
2018-12-05T07:02:23.455Z,1022.5
2018-12-05T07:03:04.030Z,1022.51
2018-12-05T07:03:44.596Z,1022.51
2018-12-05T07:04:25.150Z,1022.49
2018-12-05T07:05:05.739Z,1022.53
2018-12-05T07:05:46.314Z,1022.54
2018-12-05T07:06:26.865Z,1022.52
2018-12-05T07:07:07.440Z,1022.57
2018-12-05T07:07:47.983Z,1022.58
2018-12-05T07:08:28.543Z,1022.59
2018-12-05T07:09:09.104Z,1022.62
2018-12-05T07:09:49.785Z,1022.63
2018-12-05T07:10:30.361Z,1022.61
2018-12-05T07:11:10.981Z,1022.66
2018-12-05T07:11:51.536Z,1022.66
2018-12-05T07:12:32.100Z,1022.64
2018-12-05T07:13:12.658Z,1022.69
2018-12-05T07:13:53.226Z,1022.75
2018-12-05T07:14:33.778Z,1022.73
2018-12-05T07:15:14.357Z,1022.72
2018-12-05T07:15:54.950Z,1022.75
2018-12-05T07:16:35.520Z,1022.8
2018-12-05T07:17:16.125Z,1022.8
2018-12-05T07:17:56.697Z,1022.83
2018-12-05T07:18:37.386Z,1022.83
2018-12-05T07:19:17.937Z,1022.83
2018-12-05T07:19:58.511Z,1022.84
2018-12-05T07:20:39.102Z,1022.89
2018-12-05T07:21:19.638Z,1022.91
2018-12-05T07:22:00.196Z,1022.9
2018-12-05T07:22:40.755Z,1022.91
2018-12-05T07:23:21.303Z,1022.92
2018-12-05T07:24:01.858Z,1022.93
2018-12-05T07:24:42.421Z,1022.91
2018-12-05T07:25:23.525Z,1022.92
2018-12-05T07:26:04.086Z,1022.91
2018-12-05T07:26:44.661Z,1022.92
2018-12-05T07:27:25.218Z,1022.96
2018-12-05T07:28:05.779Z,1022.92
2018-12-05T07:28:46.331Z,1022.93
2018-12-05T07:29:26.961Z,1022.96
2018-12-05T07:30:07.522Z,1022.97
2018-12-05T07:30:48.074Z,1022.95
2018-12-05T07:31:28.642Z,1022.98
2018-12-05T07:32:09.217Z,1022.99
2018-12-05T07:32:49.771Z,1023.02
2018-12-05T07:33:30.333Z,1023.04
2018-12-05T07:34:10.887Z,1023.07
2018-12-05T07:34:51.432Z,1023.05
2018-12-05T07:35:31.999Z,1023.07
2018-12-05T07:36:12.573Z,1023.08
2018-12-05T07:36:53.122Z,1023.09
2018-12-05T07:37:33.694Z,1023.09
2018-12-05T07:38:19.297Z,1023.1
2018-12-05T07:38:54.800Z,1023.12
2018-12-05T07:39:35.356Z,1023.19
2018-12-05T07:40:15.931Z,1023.16
2018-12-05T07:40:56.525Z,1023.16
2018-12-05T07:41:37.111Z,1023.12
2018-12-05T07:42:17.675Z,1023.17
2018-12-05T07:42:58.235Z,1023.17
2018-12-05T07:43:38.781Z,1023.2
2018-12-05T07:44:19.353Z,1023.22
2018-12-05T07:44:59.902Z,1023.2
2018-12-05T07:45:40.505Z,1023.22
2018-12-05T07:46:21.074Z,1023.22
2018-12-05T07:47:01.627Z,1023.23
2018-12-05T07:47:42.262Z,1023.22
2018-12-05T07:48:22.799Z,1023.22
2018-12-05T07:49:03.362Z,1023.16
2018-12-05T07:49:43.913Z,1023.19
2018-12-05T07:50:24.485Z,1023.19
2018-12-05T07:51:05.040Z,1023.24
2018-12-05T07:51:45.622Z,1023.19
2018-12-05T07:52:26.192Z,1023.18
2018-12-05T07:53:06.734Z,1023.18
2018-12-05T07:53:47.299Z,1023.2
2018-12-05T07:54:27.888Z,1023.21
2018-12-05T07:55:08.450Z,1023.2
2018-12-05T07:55:49.017Z,1023.22
2018-12-05T07:56:29.570Z,1023.25
2018-12-05T07:57:10.130Z,1023.23
2018-12-05T07:57:50.719Z,1023.24
2018-12-05T07:58:31.304Z,1023.21
2018-12-05T07:59:11.886Z,1023.27
2018-12-05T07:59:52.435Z,1023.25
2018-12-05T08:00:33.262Z,1023.23
2018-12-05T08:01:13.946Z,1023.23
2018-12-05T08:01:54.626Z,1023.22
2018-12-05T08:02:35.294Z,1023.2
2018-12-05T08:03:15.861Z,1023.19
2018-12-05T08:03:56.411Z,1023.21
2018-12-05T08:04:37.014Z,1023.15
2018-12-05T08:05:17.577Z,1023.17
2018-12-05T08:05:58.150Z,1023.16
2018-12-05T08:06:38.701Z,1023.18
2018-12-05T08:07:19.262Z,1023.22
2018-12-05T08:07:59.828Z,1023.19
2018-12-05T08:08:40.379Z,1023.23
2018-12-05T08:09:20.927Z,1023.16
2018-12-05T08:10:01.531Z,1023.17
2018-12-05T08:10:42.091Z,1023.15
2018-12-05T08:11:22.659Z,1023.16
2018-12-05T08:12:03.262Z,1023.15
2018-12-05T08:12:43.815Z,1023.19
2018-12-05T08:13:24.369Z,1023.15
2018-12-05T08:14:06.553Z,1023.15
2018-12-05T08:14:45.480Z,1023.1
2018-12-05T08:15:26.047Z,1023.12
2018-12-05T08:16:06.610Z,1023.07
2018-12-05T08:16:47.177Z,1023.09
2018-12-05T08:17:27.729Z,1023.06